sensor_id;sensor_type;location;lat;lon;timestamp;temperature;humidity
13409;DHT22;6775;49.574;11.170;2022-09-16T00:00:52;14.00;99.90
13409;DHT22;6775;49.574;11.170;2022-09-16T00:03:20;13.90;99.90
13409;DHT22;6775;49.574;11.170;2022-09-16T00:05:49;14.30;99.90
13409;DHT22;6775;49.574;11.170;2022-09-16T00:08:20;13.90;99.90
13409;DHT22;6775;49.574;11.170;2022-09-16T00:10:48;13.90;99.90
13409;DHT22;6775;49.574;11.170;2022-09-16T00:13:18;13.90;99.90
13409;DHT22;6775;49.574;11.170;2022-09-16T00:15:48;13.80;99.90
13409;DHT22;6775;49.574;11.170;2022-09-16T00:18:17;13.80;99.90
13409;DHT22;6775;49.574;11.170;2022-09-16T00:20:47;13.80;99.90
13409;DHT22;6775;49.574;11.170;2022-09-16T00:23:15;13.80;99.90
13409;DHT22;6775;49.574;11.170;2022-09-16T00:25:43;13.80;99.90
13409;DHT22;6775;49.574;11.170;2022-09-16T00:28:11;13.80;99.90
13409;DHT22;6775;49.574;11.170;2022-09-16T00:30:40;13.80;99.90
13409;DHT22;6775;49.574;11.170;2022-09-16T00:33:09;13.80;99.90
13409;DHT22;6775;49.574;11.170;2022-09-16T00:35:36;13.90;99.90
13409;DHT22;6775;49.574;11.170;2022-09-16T00:38:04;13.80;99.90
13409;DHT22;6775;49.574;11.170;2022-09-16T00:40:33;13.90;99.90
13409;DHT22;6775;49.574;11.170;2022-09-16T00:43:00;13.80;99.90
13409;DHT22;6775;49.574;11.170;2022-09-16T00:45:28;13.90;99.90
13409;DHT22;6775;49.574;11.170;2022-09-16T00:48:00;13.90;99.90
13409;DHT22;6775;49.574;11.170;2022-09-16T00:50:35;13.90;99.90
13409;DHT22;6775;49.574;11.170;2022-09-16T00:53:05;13.80;99.90
13409;DHT22;6775;49.574;11.170;2022-09-16T00:55:36;13.80;99.90
13409;DHT22;6775;49.574;11.170;2022-09-16T00:58:08;13.80;99.90
13409;DHT22;6775;49.574;11.170;2022-09-16T01:00:39;13.80;99.90
13409;DHT22;6775;49.574;11.170;2022-09-16T01:03:08;13.80;99.90
13409;DHT22;6775;49.574;11.170;2022-09-16T01:05:37;13.80;99.90
13409;DHT22;6775;49.574;11.170;2022-09-16T01:08:05;13.80;99.90
13409;DHT22;6775;49.574;11.170;2022-09-16T01:10:32;13.70;99.90
13409;DHT22;6775;49.574;11.170;2022-09-16T01:13:03;13.70;99.90
13409;DHT22;6775;49.574;11.170;2022-09-16T01:15:38;13.70;99.90
13409;DHT22;6775;49.574;11.170;2022-09-16T01:18:15;13.70;99.90
13409;DHT22;6775;49.574;11.170;2022-09-16T01:21:12;13.70;99.90
13409;DHT22;6775;49.574;11.170;2022-09-16T01:24:06;13.70;99.90
13409;DHT22;6775;49.574;11.170;2022-09-16T01:27:06;13.70;99.90
13409;DHT22;6775;49.574;11.170;2022-09-16T01:30:17;13.60;99.90
13409;DHT22;6775;49.574;11.170;2022-09-16T01:32:57;13.60;99.90
13409;DHT22;6775;49.574;11.170;2022-09-16T01:35:43;13.60;99.90
13409;DHT22;6775;49.574;11.170;2022-09-16T01:38:25;13.60;99.90
13409;DHT22;6775;49.574;11.170;2022-09-16T01:41:02;13.60;99.90
13409;DHT22;6775;49.574;11.170;2022-09-16T01:43:42;13.60;99.90
13409;DHT22;6775;49.574;11.170;2022-09-16T01:46:18;13.50;99.90
13409;DHT22;6775;49.574;11.170;2022-09-16T01:48:53;13.50;99.90
13409;DHT22;6775;49.574;11.170;2022-09-16T01:51:27;13.50;99.90
13409;DHT22;6775;49.574;11.170;2022-09-16T01:54:03;13.50;99.90
13409;DHT22;6775;49.574;11.170;2022-09-16T01:56:38;13.50;99.90
13409;DHT22;6775;49.574;11.170;2022-09-16T01:59:11;13.50;99.90
13409;DHT22;6775;49.574;11.170;2022-09-16T02:01:46;13.50;99.90
13409;DHT22;6775;49.574;11.170;2022-09-16T02:04:21;13.50;99.90
13409;DHT22;6775;49.574;11.170;2022-09-16T02:06:51;13.50;99.90
13409;DHT22;6775;49.574;11.170;2022-09-16T02:09:25;13.50;99.90
13409;DHT22;6775;49.574;11.170;2022-09-16T02:11:55;13.50;99.90
13409;DHT22;6775;49.574;11.170;2022-09-16T02:14:27;13.50;99.90
13409;DHT22;6775;49.574;11.170;2022-09-16T02:16:59;13.50;99.90
13409;DHT22;6775;49.574;11.170;2022-09-16T02:19:32;13.50;99.90
13409;DHT22;6775;49.574;11.170;2022-09-16T02:22:03;13.50;99.90
13409;DHT22;6775;49.574;11.170;2022-09-16T02:24:34;13.50;99.90
13409;DHT22;6775;49.574;11.170;2022-09-16T02:27:08;13.50;99.90
13409;DHT22;6775;49.574;11.170;2022-09-16T02:29:40;13.50;99.90
13409;DHT22;6775;49.574;11.170;2022-09-16T02:32:11;13.50;99.90
13409;DHT22;6775;49.574;11.170;2022-09-16T02:34:43;13.50;99.90
13409;DHT22;6775;49.574;11.170;2022-09-16T02:37:16;13.50;99.90
13409;DHT22;6775;49.574;11.170;2022-09-16T02:39:47;13.50;99.90
13409;DHT22;6775;49.574;11.170;2022-09-16T02:42:16;13.60;99.90
13409;DHT22;6775;49.574;11.170;2022-09-16T02:44:45;13.60;99.90
13409;DHT22;6775;49.574;11.170;2022-09-16T02:47:17;13.60;99.90
13409;DHT22;6775;49.574;11.170;2022-09-16T02:49:55;13.60;99.90
13409;DHT22;6775;49.574;11.170;2022-09-16T02:52:31;13.60;99.90
13409;DHT22;6775;49.574;11.170;2022-09-16T02:55:06;13.60;99.90
13409;DHT22;6775;49.574;11.170;2022-09-16T02:57:38;13.60;99.90
13409;DHT22;6775;49.574;11.170;2022-09-16T03:00:08;13.50;99.90
13409;DHT22;6775;49.574;11.170;2022-09-16T03:02:36;13.60;99.90
13409;DHT22;6775;49.574;11.170;2022-09-16T03:05:07;13.50;99.90
13409;DHT22;6775;49.574;11.170;2022-09-16T03:07:36;13.50;99.90
13409;DHT22;6775;49.574;11.170;2022-09-16T03:10:08;13.50;99.90
13409;DHT22;6775;49.574;11.170;2022-09-16T03:12:47;13.50;99.90
13409;DHT22;6775;49.574;11.170;2022-09-16T03:15:41;13.50;99.90
13409;DHT22;6775;49.574;11.170;2022-09-16T03:21:12;13.50;99.90
13409;DHT22;6775;49.574;11.170;2022-09-16T03:23:48;13.40;99.90
13409;DHT22;6775;49.574;11.170;2022-09-16T03:26:24;13.50;99.90
13409;DHT22;6775;49.574;11.170;2022-09-16T03:29:08;13.50;99.90
13409;DHT22;6775;49.574;11.170;2022-09-16T03:31:45;13.30;99.90
13409;DHT22;6775;49.574;11.170;2022-09-16T03:34:18;13.40;99.90
13409;DHT22;6775;49.574;11.170;2022-09-16T03:36:51;13.40;99.90
13409;DHT22;6775;49.574;11.170;2022-09-16T03:39:21;13.30;99.90
13409;DHT22;6775;49.574;11.170;2022-09-16T03:41:50;13.30;99.90
13409;DHT22;6775;49.574;11.170;2022-09-16T03:44:18;13.30;99.90
13409;DHT22;6775;49.574;11.170;2022-09-16T03:46:46;13.30;99.90
13409;DHT22;6775;49.574;11.170;2022-09-16T03:49:14;13.30;99.90
13409;DHT22;6775;49.574;11.170;2022-09-16T03:51:42;13.30;99.90
13409;DHT22;6775;49.574;11.170;2022-09-16T03:54:11;13.30;99.90
13409;DHT22;6775;49.574;11.170;2022-09-16T03:56:39;13.30;99.90
13409;DHT22;6775;49.574;11.170;2022-09-16T03:59:07;13.30;99.90
13409;DHT22;6775;49.574;11.170;2022-09-16T04:01:35;13.30;99.90
13409;DHT22;6775;49.574;11.170;2022-09-16T04:04:03;13.30;99.90
13409;DHT22;6775;49.574;11.170;2022-09-16T04:06:31;13.30;99.90
13409;DHT22;6775;49.574;11.170;2022-09-16T04:09:01;13.30;99.90
13409;DHT22;6775;49.574;11.170;2022-09-16T04:11:30;13.20;99.90
13409;DHT22;6775;49.574;11.170;2022-09-16T04:13:58;13.30;99.90
13409;DHT22;6775;49.574;11.170;2022-09-16T04:16:26;13.30;99.90
13409;DHT22;6775;49.574;11.170;2022-09-16T04:18:54;13.30;99.90
13409;DHT22;6775;49.574;11.170;2022-09-16T04:21:22;13.30;99.90
13409;DHT22;6775;49.574;11.170;2022-09-16T04:23:50;13.30;99.90
13409;DHT22;6775;49.574;11.170;2022-09-16T04:26:20;13.20;99.90
13409;DHT22;6775;49.574;11.170;2022-09-16T04:28:51;13.30;99.90
13409;DHT22;6775;49.574;11.170;2022-09-16T04:31:19;13.30;99.90
13409;DHT22;6775;49.574;11.170;2022-09-16T04:33:48;13.30;99.90
13409;DHT22;6775;49.574;11.170;2022-09-16T04:36:17;13.30;99.90
13409;DHT22;6775;49.574;11.170;2022-09-16T04:38:47;13.30;99.90
13409;DHT22;6775;49.574;11.170;2022-09-16T04:41:17;13.30;99.90
13409;DHT22;6775;49.574;11.170;2022-09-16T04:43:46;13.30;99.90
13409;DHT22;6775;49.574;11.170;2022-09-16T04:46:18;13.30;99.90
13409;DHT22;6775;49.574;11.170;2022-09-16T04:48:46;13.30;99.90
13409;DHT22;6775;49.574;11.170;2022-09-16T04:51:15;13.30;99.90
13409;DHT22;6775;49.574;11.170;2022-09-16T04:53:43;13.30;99.90
13409;DHT22;6775;49.574;11.170;2022-09-16T04:56:13;13.30;99.90
13409;DHT22;6775;49.574;11.170;2022-09-16T04:58:42;13.30;99.90
13409;DHT22;6775;49.574;11.170;2022-09-16T05:01:12;13.30;99.90
13409;DHT22;6775;49.574;11.170;2022-09-16T05:03:44;13.30;99.90
13409;DHT22;6775;49.574;11.170;2022-09-16T05:06:14;13.40;99.90
13409;DHT22;6775;49.574;11.170;2022-09-16T05:08:46;13.40;99.90
13409;DHT22;6775;49.574;11.170;2022-09-16T05:11:15;13.40;99.90
13409;DHT22;6775;49.574;11.170;2022-09-16T05:13:44;13.40;99.90
13409;DHT22;6775;49.574;11.170;2022-09-16T05:16:13;13.40;99.90
13409;DHT22;6775;49.574;11.170;2022-09-16T05:18:45;13.40;99.90
13409;DHT22;6775;49.574;11.170;2022-09-16T05:21:15;13.40;99.90
13409;DHT22;6775;49.574;11.170;2022-09-16T05:23:43;13.40;99.90
13409;DHT22;6775;49.574;11.170;2022-09-16T05:26:14;13.40;99.90
13409;DHT22;6775;49.574;11.170;2022-09-16T05:28:42;13.40;99.90
13409;DHT22;6775;49.574;11.170;2022-09-16T05:31:12;13.40;99.90
13409;DHT22;6775;49.574;11.170;2022-09-16T05:33:41;13.40;99.90
13409;DHT22;6775;49.574;11.170;2022-09-16T05:36:12;13.40;99.90
13409;DHT22;6775;49.574;11.170;2022-09-16T05:38:40;13.40;99.90
13409;DHT22;6775;49.574;11.170;2022-09-16T05:41:28;13.40;99.90
13409;DHT22;6775;49.574;11.170;2022-09-16T05:43:57;13.40;99.90
13409;DHT22;6775;49.574;11.170;2022-09-16T05:46:26;13.40;99.90
13409;DHT22;6775;49.574;11.170;2022-09-16T05:48:55;13.40;99.90
13409;DHT22;6775;49.574;11.170;2022-09-16T05:51:24;13.40;99.90
13409;DHT22;6775;49.574;11.170;2022-09-16T05:53:53;13.40;99.90
13409;DHT22;6775;49.574;11.170;2022-09-16T05:56:22;13.50;99.90
13409;DHT22;6775;49.574;11.170;2022-09-16T05:58:52;13.50;99.90
13409;DHT22;6775;49.574;11.170;2022-09-16T06:01:22;13.50;99.90
13409;DHT22;6775;49.574;11.170;2022-09-16T06:03:51;13.50;99.90
13409;DHT22;6775;49.574;11.170;2022-09-16T06:06:24;13.50;99.90
13409;DHT22;6775;49.574;11.170;2022-09-16T06:08:54;13.50;99.90
13409;DHT22;6775;49.574;11.170;2022-09-16T06:11:23;13.50;99.90
13409;DHT22;6775;49.574;11.170;2022-09-16T06:13:52;13.60;99.90
13409;DHT22;6775;49.574;11.170;2022-09-16T06:16:22;13.60;99.90
13409;DHT22;6775;49.574;11.170;2022-09-16T06:18:52;13.60;99.90
13409;DHT22;6775;49.574;11.170;2022-09-16T06:21:20;13.60;99.90
13409;DHT22;6775;49.574;11.170;2022-09-16T06:23:50;13.60;99.90
13409;DHT22;6775;49.574;11.170;2022-09-16T06:26:20;13.60;99.90
13409;DHT22;6775;49.574;11.170;2022-09-16T06:28:48;13.70;99.90
13409;DHT22;6775;49.574;11.170;2022-09-16T06:31:19;13.70;99.90
13409;DHT22;6775;49.574;11.170;2022-09-16T06:33:47;13.70;99.90
13409;DHT22;6775;49.574;11.170;2022-09-16T06:36:17;13.70;99.90
13409;DHT22;6775;49.574;11.170;2022-09-16T06:38:45;13.70;99.90
13409;DHT22;6775;49.574;11.170;2022-09-16T06:41:16;13.70;99.90
13409;DHT22;6775;49.574;11.170;2022-09-16T06:43:45;13.70;99.90
13409;DHT22;6775;49.574;11.170;2022-09-16T06:46:15;13.70;99.90
13409;DHT22;6775;49.574;11.170;2022-09-16T06:48:45;13.70;99.90
13409;DHT22;6775;49.574;11.170;2022-09-16T06:51:16;13.80;99.90
13409;DHT22;6775;49.574;11.170;2022-09-16T06:53:44;13.70;99.90
13409;DHT22;6775;49.574;11.170;2022-09-16T06:56:16;13.80;99.90
13409;DHT22;6775;49.574;11.170;2022-09-16T06:58:46;13.80;99.90
13409;DHT22;6775;49.574;11.170;2022-09-16T07:01:16;13.90;99.90
13409;DHT22;6775;49.574;11.170;2022-09-16T07:03:46;13.90;99.90
13409;DHT22;6775;49.574;11.170;2022-09-16T07:06:15;13.90;99.90
13409;DHT22;6775;49.574;11.170;2022-09-16T07:08:44;13.90;99.90
13409;DHT22;6775;49.574;11.170;2022-09-16T07:11:14;14.00;99.90
13409;DHT22;6775;49.574;11.170;2022-09-16T07:13:45;14.10;99.90
13409;DHT22;6775;49.574;11.170;2022-09-16T07:16:14;14.10;99.90
13409;DHT22;6775;49.574;11.170;2022-09-16T07:18:43;14.10;99.90
13409;DHT22;6775;49.574;11.170;2022-09-16T07:21:14;14.20;99.90
13409;DHT22;6775;49.574;11.170;2022-09-16T07:23:43;14.20;99.90
13409;DHT22;6775;49.574;11.170;2022-09-16T07:26:13;14.20;99.90
13409;DHT22;6775;49.574;11.170;2022-09-16T07:28:42;14.20;99.90
13409;DHT22;6775;49.574;11.170;2022-09-16T07:31:14;14.20;99.90
13409;DHT22;6775;49.574;11.170;2022-09-16T07:33:44;14.30;99.90
13409;DHT22;6775;49.574;11.170;2022-09-16T07:36:15;14.40;99.90
13409;DHT22;6775;49.574;11.170;2022-09-16T07:38:43;14.50;99.90
13409;DHT22;6775;49.574;11.170;2022-09-16T07:41:13;14.60;99.90
13409;DHT22;6775;49.574;11.170;2022-09-16T07:43:41;14.80;99.90
13409;DHT22;6775;49.574;11.170;2022-09-16T07:46:11;14.80;99.90
13409;DHT22;6775;49.574;11.170;2022-09-16T07:48:40;14.90;99.90
13409;DHT22;6775;49.574;11.170;2022-09-16T07:51:10;14.90;99.90
13409;DHT22;6775;49.574;11.170;2022-09-16T07:53:39;15.00;99.90
13409;DHT22;6775;49.574;11.170;2022-09-16T07:56:08;15.10;99.90
13409;DHT22;6775;49.574;11.170;2022-09-16T07:58:36;15.20;99.90
13409;DHT22;6775;49.574;11.170;2022-09-16T08:01:05;15.20;99.90
13409;DHT22;6775;49.574;11.170;2022-09-16T08:03:35;15.30;99.90
13409;DHT22;6775;49.574;11.170;2022-09-16T08:06:06;15.40;99.90
13409;DHT22;6775;49.574;11.170;2022-09-16T08:08:35;15.50;99.90
13409;DHT22;6775;49.574;11.170;2022-09-16T08:11:04;15.50;99.90
13409;DHT22;6775;49.574;11.170;2022-09-16T08:13:33;15.60;99.90
13409;DHT22;6775;49.574;11.170;2022-09-16T08:16:03;15.60;99.90
13409;DHT22;6775;49.574;11.170;2022-09-16T08:18:31;15.60;99.90
13409;DHT22;6775;49.574;11.170;2022-09-16T08:21:05;15.60;99.90
13409;DHT22;6775;49.574;11.170;2022-09-16T08:23:33;15.60;99.90
13409;DHT22;6775;49.574;11.170;2022-09-16T08:26:02;15.50;99.90
13409;DHT22;6775;49.574;11.170;2022-09-16T08:28:31;15.40;99.90
13409;DHT22;6775;49.574;11.170;2022-09-16T08:31:17;15.40;99.90
13409;DHT22;6775;49.574;11.170;2022-09-16T08:33:46;15.30;99.90
13409;DHT22;6775;49.574;11.170;2022-09-16T08:36:17;15.20;99.90
13409;DHT22;6775;49.574;11.170;2022-09-16T08:38:47;15.20;99.90
13409;DHT22;6775;49.574;11.170;2022-09-16T08:41:34;15.20;99.90
13409;DHT22;6775;49.574;11.170;2022-09-16T08:44:15;15.20;99.90
13409;DHT22;6775;49.574;11.170;2022-09-16T08:46:50;15.20;99.90
13409;DHT22;6775;49.574;11.170;2022-09-16T08:49:24;15.10;99.90
13409;DHT22;6775;49.574;11.170;2022-09-16T08:51:56;15.10;99.90
13409;DHT22;6775;49.574;11.170;2022-09-16T08:54:27;15.10;99.90
13409;DHT22;6775;49.574;11.170;2022-09-16T08:57:00;15.10;99.90
13409;DHT22;6775;49.574;11.170;2022-09-16T08:59:40;15.10;99.90
13409;DHT22;6775;49.574;11.170;2022-09-16T09:02:24;15.10;99.90
13409;DHT22;6775;49.574;11.170;2022-09-16T09:04:55;15.10;99.90
13409;DHT22;6775;49.574;11.170;2022-09-16T09:07:35;15.20;99.90
13409;DHT22;6775;49.574;11.170;2022-09-16T09:10:14;15.20;99.90
13409;DHT22;6775;49.574;11.170;2022-09-16T09:12:48;15.20;99.90
13409;DHT22;6775;49.574;11.170;2022-09-16T09:15:32;15.20;99.90
13409;DHT22;6775;49.574;11.170;2022-09-16T09:18:15;15.30;99.90
13409;DHT22;6775;49.574;11.170;2022-09-16T09:20:50;15.30;99.90
13409;DHT22;6775;49.574;11.170;2022-09-16T09:23:31;15.30;99.90
13409;DHT22;6775;49.574;11.170;2022-09-16T09:26:04;15.30;99.90
13409;DHT22;6775;49.574;11.170;2022-09-16T09:29:01;15.40;99.90
13409;DHT22;6775;49.574;11.170;2022-09-16T09:31:40;15.40;99.90
13409;DHT22;6775;49.574;11.170;2022-09-16T09:34:20;15.50;99.90
13409;DHT22;6775;49.574;11.170;2022-09-16T09:37:01;15.50;99.90
13409;DHT22;6775;49.574;11.170;2022-09-16T09:39:43;15.40;99.90
13409;DHT22;6775;49.574;11.170;2022-09-16T09:42:16;15.50;99.90
13409;DHT22;6775;49.574;11.170;2022-09-16T09:44:51;15.40;99.90
13409;DHT22;6775;49.574;11.170;2022-09-16T09:47:27;15.40;99.90
13409;DHT22;6775;49.574;11.170;2022-09-16T09:50:04;15.50;99.90
13409;DHT22;6775;49.574;11.170;2022-09-16T09:52:42;15.80;99.90
13409;DHT22;6775;49.574;11.170;2022-09-16T09:55:17;15.90;99.90
13409;DHT22;6775;49.574;11.170;2022-09-16T09:58:01;15.90;99.90
13409;DHT22;6775;49.574;11.170;2022-09-16T10:00:30;15.90;99.90
13409;DHT22;6775;49.574;11.170;2022-09-16T10:03:08;15.90;99.90
13409;DHT22;6775;49.574;11.170;2022-09-16T10:05:37;15.90;99.90
13409;DHT22;6775;49.574;11.170;2022-09-16T10:08:13;15.90;99.90
13409;DHT22;6775;49.574;11.170;2022-09-16T10:10:48;15.90;99.90
13409;DHT22;6775;49.574;11.170;2022-09-16T10:13:18;15.90;99.90
13409;DHT22;6775;49.574;11.170;2022-09-16T10:15:47;16.00;99.90
13409;DHT22;6775;49.574;11.170;2022-09-16T10:18:24;16.10;99.90
13409;DHT22;6775;49.574;11.170;2022-09-16T10:21:04;16.10;99.90
13409;DHT22;6775;49.574;11.170;2022-09-16T10:23:33;16.00;99.90
13409;DHT22;6775;49.574;11.170;2022-09-16T10:26:17;16.00;99.90
13409;DHT22;6775;49.574;11.170;2022-09-16T10:28:57;16.00;99.90
13409;DHT22;6775;49.574;11.170;2022-09-16T10:31:28;16.00;99.90
13409;DHT22;6775;49.574;11.170;2022-09-16T10:34:01;16.00;99.90
13409;DHT22;6775;49.574;11.170;2022-09-16T10:36:32;16.10;99.90
13409;DHT22;6775;49.574;11.170;2022-09-16T10:39:02;16.20;99.90
13409;DHT22;6775;49.574;11.170;2022-09-16T10:41:39;16.30;99.90
13409;DHT22;6775;49.574;11.170;2022-09-16T10:44:14;16.40;99.90
13409;DHT22;6775;49.574;11.170;2022-09-16T10:46:52;16.50;99.90
13409;DHT22;6775;49.574;11.170;2022-09-16T10:49:24;16.60;99.90
13409;DHT22;6775;49.574;11.170;2022-09-16T10:51:54;16.60;99.90
13409;DHT22;6775;49.574;11.170;2022-09-16T10:54:24;16.50;99.90
13409;DHT22;6775;49.574;11.170;2022-09-16T10:56:55;16.50;99.90
13409;DHT22;6775;49.574;11.170;2022-09-16T10:59:22;16.40;99.90
13409;DHT22;6775;49.574;11.170;2022-09-16T11:02:00;16.30;99.90
13409;DHT22;6775;49.574;11.170;2022-09-16T11:04:54;16.20;99.90
13409;DHT22;6775;49.574;11.170;2022-09-16T11:07:35;16.10;99.90
13409;DHT22;6775;49.574;11.170;2022-09-16T11:10:13;16.00;99.90
13409;DHT22;6775;49.574;11.170;2022-09-16T11:12:57;15.90;99.90
13409;DHT22;6775;49.574;11.170;2022-09-16T11:15:38;15.80;99.90
13409;DHT22;6775;49.574;11.170;2022-09-16T11:18:24;15.80;99.90
13409;DHT22;6775;49.574;11.170;2022-09-16T11:21:22;15.80;99.90
13409;DHT22;6775;49.574;11.170;2022-09-16T11:24:10;15.70;99.90
13409;DHT22;6775;49.574;11.170;2022-09-16T11:26:47;15.70;99.90
13409;DHT22;6775;49.574;11.170;2022-09-16T11:29:39;15.60;99.90
13409;DHT22;6775;49.574;11.170;2022-09-16T11:32:19;15.60;99.90
13409;DHT22;6775;49.574;11.170;2022-09-16T11:35:13;15.50;99.90
13409;DHT22;6775;49.574;11.170;2022-09-16T11:37:49;15.40;99.90
13409;DHT22;6775;49.574;11.170;2022-09-16T11:40:29;15.30;99.90
13409;DHT22;6775;49.574;11.170;2022-09-16T11:43:05;15.20;99.90
13409;DHT22;6775;49.574;11.170;2022-09-16T11:45:43;15.10;99.90
13409;DHT22;6775;49.574;11.170;2022-09-16T11:51:21;15.00;99.90
13409;DHT22;6775;49.574;11.170;2022-09-16T11:54:06;15.00;99.90
13409;DHT22;6775;49.574;11.170;2022-09-16T11:56:40;14.90;99.90
13409;DHT22;6775;49.574;11.170;2022-09-16T11:59:14;14.90;99.90
13409;DHT22;6775;49.574;11.170;2022-09-16T12:01:50;14.80;99.90
13409;DHT22;6775;49.574;11.170;2022-09-16T12:04:24;14.80;99.90
13409;DHT22;6775;49.574;11.170;2022-09-16T12:06:57;14.90;99.90
13409;DHT22;6775;49.574;11.170;2022-09-16T12:09:35;14.90;99.90
13409;DHT22;6775;49.574;11.170;2022-09-16T12:12:09;15.00;99.90
13409;DHT22;6775;49.574;11.170;2022-09-16T12:14:42;15.00;99.90
13409;DHT22;6775;49.574;11.170;2022-09-16T12:17:15;15.00;99.90
13409;DHT22;6775;49.574;11.170;2022-09-16T12:19:48;15.10;99.90
13409;DHT22;6775;49.574;11.170;2022-09-16T12:22:21;15.10;99.90
13409;DHT22;6775;49.574;11.170;2022-09-16T12:24:55;15.20;99.90
13409;DHT22;6775;49.574;11.170;2022-09-16T12:27:32;15.20;99.90
13409;DHT22;6775;49.574;11.170;2022-09-16T12:30:04;15.30;99.90
13409;DHT22;6775;49.574;11.170;2022-09-16T12:32:44;15.20;99.90
13409;DHT22;6775;49.574;11.170;2022-09-16T12:35:14;15.20;99.90
13409;DHT22;6775;49.574;11.170;2022-09-16T12:37:46;15.30;99.90
13409;DHT22;6775;49.574;11.170;2022-09-16T12:40:17;15.30;99.90
13409;DHT22;6775;49.574;11.170;2022-09-16T12:43:09;15.40;99.90
13409;DHT22;6775;49.574;11.170;2022-09-16T12:46:03;15.40;99.90
13409;DHT22;6775;49.574;11.170;2022-09-16T12:48:58;15.40;99.90
13409;DHT22;6775;49.574;11.170;2022-09-16T12:51:42;15.40;99.90
13409;DHT22;6775;49.574;11.170;2022-09-16T12:57:45;15.30;99.90
13409;DHT22;6775;49.574;11.170;2022-09-16T13:00:18;15.30;99.90
13409;DHT22;6775;49.574;11.170;2022-09-16T13:02:50;15.30;99.90
13409;DHT22;6775;49.574;11.170;2022-09-16T13:05:26;15.60;99.90
13409;DHT22;6775;49.574;11.170;2022-09-16T13:08:02;16.00;99.90
13409;DHT22;6775;49.574;11.170;2022-09-16T13:10:33;16.30;99.90
13409;DHT22;6775;49.574;11.170;2022-09-16T13:13:31;16.50;99.90
13409;DHT22;6775;49.574;11.170;2022-09-16T13:16:05;16.50;99.90
13409;DHT22;6775;49.574;11.170;2022-09-16T13:18:39;16.40;99.90
13409;DHT22;6775;49.574;11.170;2022-09-16T13:21:19;16.30;99.90
13409;DHT22;6775;49.574;11.170;2022-09-16T13:23:58;16.10;99.90
13409;DHT22;6775;49.574;11.170;2022-09-16T13:26:38;16.00;99.90
13409;DHT22;6775;49.574;11.170;2022-09-16T13:29:39;15.90;99.90
13409;DHT22;6775;49.574;11.170;2022-09-16T13:32:26;15.70;99.90
13409;DHT22;6775;49.574;11.170;2022-09-16T13:35:03;15.60;99.90
13409;DHT22;6775;49.574;11.170;2022-09-16T13:37:32;15.50;99.90
13409;DHT22;6775;49.574;11.170;2022-09-16T13:40:17;15.50;99.90
13409;DHT22;6775;49.574;11.170;2022-09-16T13:42:45;15.70;99.90
13409;DHT22;6775;49.574;11.170;2022-09-16T13:45:30;15.80;99.90
13409;DHT22;6775;49.574;11.170;2022-09-16T13:48:04;16.00;99.90
13409;DHT22;6775;49.574;11.170;2022-09-16T13:50:36;16.00;99.90
13409;DHT22;6775;49.574;11.170;2022-09-16T13:53:09;16.00;99.90
13409;DHT22;6775;49.574;11.170;2022-09-16T13:55:39;15.90;99.90
13409;DHT22;6775;49.574;11.170;2022-09-16T13:58:15;15.80;99.90
13409;DHT22;6775;49.574;11.170;2022-09-16T14:00:52;15.70;99.90
13409;DHT22;6775;49.574;11.170;2022-09-16T14:03:50;15.60;99.90
13409;DHT22;6775;49.574;11.170;2022-09-16T14:06:41;15.50;99.90
13409;DHT22;6775;49.574;11.170;2022-09-16T14:09:23;15.50;99.90
13409;DHT22;6775;49.574;11.170;2022-09-16T14:11:58;15.70;99.90
13409;DHT22;6775;49.574;11.170;2022-09-16T14:14:31;15.80;99.90
13409;DHT22;6775;49.574;11.170;2022-09-16T14:17:18;16.00;99.90
13409;DHT22;6775;49.574;11.170;2022-09-16T14:19:48;16.20;99.90
13409;DHT22;6775;49.574;11.170;2022-09-16T14:22:19;16.40;99.90
13409;DHT22;6775;49.574;11.170;2022-09-16T14:24:50;16.60;99.90
13409;DHT22;6775;49.574;11.170;2022-09-16T14:27:37;16.60;99.90
13409;DHT22;6775;49.574;11.170;2022-09-16T14:30:13;16.60;99.90
13409;DHT22;6775;49.574;11.170;2022-09-16T14:32:42;16.60;99.90
13409;DHT22;6775;49.574;11.170;2022-09-16T14:35:15;16.60;99.90
13409;DHT22;6775;49.574;11.170;2022-09-16T14:37:45;16.70;99.90
13409;DHT22;6775;49.574;11.170;2022-09-16T14:40:18;16.80;99.90
13409;DHT22;6775;49.574;11.170;2022-09-16T14:42:49;16.80;99.90
13409;DHT22;6775;49.574;11.170;2022-09-16T14:45:19;16.80;99.90
13409;DHT22;6775;49.574;11.170;2022-09-16T14:47:48;16.90;99.90
13409;DHT22;6775;49.574;11.170;2022-09-16T14:50:20;17.00;99.90
13409;DHT22;6775;49.574;11.170;2022-09-16T14:52:53;17.00;99.90
13409;DHT22;6775;49.574;11.170;2022-09-16T14:55:25;16.90;99.90
13409;DHT22;6775;49.574;11.170;2022-09-16T14:57:55;16.90;99.90
13409;DHT22;6775;49.574;11.170;2022-09-16T15:00:33;16.80;99.90
13409;DHT22;6775;49.574;11.170;2022-09-16T15:03:09;16.90;99.90
13409;DHT22;6775;49.574;11.170;2022-09-16T15:05:41;16.80;99.90
13409;DHT22;6775;49.574;11.170;2022-09-16T15:08:15;16.90;99.90
13409;DHT22;6775;49.574;11.170;2022-09-16T15:10:48;16.80;99.90
13409;DHT22;6775;49.574;11.170;2022-09-16T15:13:21;16.90;99.90
13409;DHT22;6775;49.574;11.170;2022-09-16T15:15:53;16.90;99.90
13409;DHT22;6775;49.574;11.170;2022-09-16T15:18:25;16.80;99.90
13409;DHT22;6775;49.574;11.170;2022-09-16T15:21:00;16.80;99.90
13409;DHT22;6775;49.574;11.170;2022-09-16T15:23:29;16.70;99.90
13409;DHT22;6775;49.574;11.170;2022-09-16T15:26:11;16.70;99.90
13409;DHT22;6775;49.574;11.170;2022-09-16T15:28:54;16.70;99.90
13409;DHT22;6775;49.574;11.170;2022-09-16T15:31:28;16.80;99.90
13409;DHT22;6775;49.574;11.170;2022-09-16T15:33:57;16.90;99.90
13409;DHT22;6775;49.574;11.170;2022-09-16T15:36:47;16.90;99.90
13409;DHT22;6775;49.574;11.170;2022-09-16T15:39:23;16.90;99.90
13409;DHT22;6775;49.574;11.170;2022-09-16T15:42:08;16.80;99.90
13409;DHT22;6775;49.574;11.170;2022-09-16T15:44:42;16.80;99.90
13409;DHT22;6775;49.574;11.170;2022-09-16T15:47:16;16.80;99.90
13409;DHT22;6775;49.574;11.170;2022-09-16T15:49:47;16.80;99.90
13409;DHT22;6775;49.574;11.170;2022-09-16T15:52:16;16.80;99.90
13409;DHT22;6775;49.574;11.170;2022-09-16T15:54:47;16.70;99.90
13409;DHT22;6775;49.574;11.170;2022-09-16T15:57:27;16.70;99.90
13409;DHT22;6775;49.574;11.170;2022-09-16T16:00:00;16.60;99.90
13409;DHT22;6775;49.574;11.170;2022-09-16T16:02:39;16.50;99.90
13409;DHT22;6775;49.574;11.170;2022-09-16T16:05:09;16.40;99.90
13409;DHT22;6775;49.574;11.170;2022-09-16T16:07:40;16.40;99.90
13409;DHT22;6775;49.574;11.170;2022-09-16T16:10:17;16.30;99.90
13409;DHT22;6775;49.574;11.170;2022-09-16T16:12:48;16.30;99.90
13409;DHT22;6775;49.574;11.170;2022-09-16T16:15:19;16.20;99.90
13409;DHT22;6775;49.574;11.170;2022-09-16T16:17:48;16.10;99.90
13409;DHT22;6775;49.574;11.170;2022-09-16T16:20:17;16.00;99.90